createdAt,value
2022-08-07T00:00:13.834Z,19.05
2022-08-07T00:02:48.635Z,19.00
2022-08-07T00:05:17.915Z,18.98
2022-08-07T00:07:48.226Z,18.93
2022-08-07T00:10:31.487Z,19.11
2022-08-07T00:13:17.633Z,19.13
2022-08-07T00:16:00.070Z,19.13
2022-08-07T00:18:32.153Z,19.05
2022-08-07T00:21:08.323Z,18.92
2022-08-07T00:23:58.579Z,18.69
2022-08-07T00:26:49.379Z,18.83
2022-08-07T00:29:18.579Z,19.08
2022-08-07T00:31:55.920Z,19.17
2022-08-07T00:34:28.946Z,19.15
2022-08-07T00:36:57.775Z,19.19
2022-08-07T00:39:29.986Z,18.70
2022-08-07T00:42:05.018Z,18.92
2022-08-07T00:44:35.596Z,18.64
2022-08-07T00:47:15.860Z,18.37
2022-08-07T00:50:20.458Z,18.67
2022-08-07T00:52:56.206Z,18.35
2022-08-07T00:56:02.567Z,18.41
2022-08-07T00:58:13.385Z,18.61
2022-08-07T01:00:53.493Z,18.78
2022-08-07T01:03:56.252Z,18.81
2022-08-07T01:06:10.663Z,18.64
2022-08-07T01:08:51.408Z,18.50
2022-08-07T01:12:23.740Z,18.86
2022-08-07T01:14:15.408Z,18.50
2022-08-07T01:16:47.159Z,18.35
2022-08-07T01:19:20.755Z,18.57
2022-08-07T01:21:56.408Z,18.53
2022-08-07T01:24:36.106Z,18.16
2022-08-07T01:27:05.898Z,18.23
2022-08-07T01:29:47.375Z,18.16
2022-08-07T01:32:15.562Z,18.12
2022-08-07T01:34:47.354Z,18.29
2022-08-07T01:37:20.082Z,18.14
2022-08-07T01:39:50.748Z,18.34
2022-08-07T01:42:38.493Z,18.25
2022-08-07T01:45:18.549Z,18.10
2022-08-07T01:48:19.472Z,18.28
2022-08-07T01:52:02.098Z,17.90
2022-08-07T01:54:12.076Z,18.01
2022-08-07T01:57:08.682Z,17.64
2022-08-07T02:00:12.983Z,17.63
2022-08-07T02:03:19.108Z,17.64
2022-08-07T02:05:59.783Z,17.83
2022-08-07T02:08:40.952Z,17.58
2022-08-07T02:11:57.726Z,17.55
2022-08-07T02:14:11.416Z,17.83
2022-08-07T02:17:00.766Z,17.91
2022-08-07T02:20:07.431Z,17.91
2022-08-07T02:22:33.177Z,17.59
2022-08-07T02:25:13.872Z,17.46
2022-08-07T02:27:57.370Z,17.45
2022-08-07T02:30:27.870Z,17.78
2022-08-07T02:33:03.918Z,17.82
2022-08-07T02:36:29.500Z,17.94
2022-08-07T02:38:38.453Z,18.04
2022-08-07T02:41:08.001Z,18.07
2022-08-07T02:43:43.343Z,18.26
2022-08-07T02:46:26.159Z,18.02
2022-08-07T02:48:58.456Z,17.90
2022-08-07T02:51:42.956Z,17.83
2022-08-07T02:54:25.209Z,17.73
2022-08-07T02:56:56.955Z,17.87
2022-08-07T02:59:29.377Z,18.02
2022-08-07T03:02:03.569Z,18.06
2022-08-07T03:04:32.845Z,18.07
2022-08-07T03:07:03.283Z,17.96
2022-08-07T03:09:43.870Z,17.94
2022-08-07T03:12:22.274Z,17.80
2022-08-07T03:15:07.386Z,17.63
2022-08-07T03:17:54.075Z,17.71
2022-08-07T03:20:26.254Z,17.78
2022-08-07T03:22:55.809Z,17.62
2022-08-07T03:25:32.459Z,17.05
2022-08-07T03:28:37.441Z,17.35
2022-08-07T03:31:26.243Z,17.31
2022-08-07T03:34:18.519Z,17.38
2022-08-07T03:36:57.391Z,17.38
2022-08-07T03:39:46.426Z,17.22
2022-08-07T03:42:20.043Z,16.97
2022-08-07T03:44:53.341Z,17.17
2022-08-07T03:47:29.600Z,16.91
2022-08-07T03:50:22.891Z,17.21
2022-08-07T03:52:57.326Z,17.16
2022-08-07T03:55:48.724Z,17.13
2022-08-07T03:59:05.064Z,17.44
2022-08-07T04:01:11.255Z,17.07
2022-08-07T04:03:53.549Z,16.82
2022-08-07T04:06:37.441Z,16.94
2022-08-07T04:09:15.761Z,17.44
2022-08-07T04:12:27.030Z,17.20
2022-08-07T04:14:46.375Z,17.43
2022-08-07T04:18:31.410Z,17.47
2022-08-07T04:20:12.874Z,17.26
2022-08-07T04:22:53.214Z,17.41
2022-08-07T04:25:29.124Z,17.30
2022-08-07T04:28:01.191Z,17.40
2022-08-07T04:30:39.347Z,17.37
2022-08-07T04:33:21.359Z,17.34
2022-08-07T04:35:53.233Z,17.51
2022-08-07T04:38:28.724Z,17.69
2022-08-07T04:40:58.323Z,17.83
2022-08-07T04:44:09.888Z,17.79
2022-08-07T04:47:04.574Z,18.06
2022-08-07T04:49:57.892Z,18.61
2022-08-07T04:52:52.255Z,19.21
2022-08-07T04:58:12.228Z,20.63
2022-08-07T05:00:14.423Z,22.86
2022-08-07T05:04:00.935Z,25.10
2022-08-07T05:06:55.174Z,26.58
2022-08-07T05:10:05.586Z,27.60
2022-08-07T05:12:59.980Z,28.95
2022-08-07T05:15:45.425Z,30.37
2022-08-07T05:18:41.504Z,30.85
2022-08-07T05:21:14.569Z,31.38
2022-08-07T05:24:02.545Z,32.12
2022-08-07T05:26:35.018Z,32.18
2022-08-07T05:29:11.676Z,33.37
2022-08-07T05:31:47.434Z,33.83
2022-08-07T05:34:26.159Z,34.01
2022-08-07T05:36:57.682Z,35.13
2022-08-07T05:40:13.722Z,35.52
2022-08-07T05:42:34.404Z,36.52
2022-08-07T05:45:14.343Z,36.83
2022-08-07T05:48:01.219Z,36.76
2022-08-07T05:50:39.598Z,36.86
2022-08-07T05:54:09.343Z,36.29
2022-08-07T05:56:06.125Z,38.44
2022-08-07T05:58:41.728Z,39.57
2022-08-07T06:01:27.044Z,40.10
2022-08-07T06:04:07.212Z,41.07
2022-08-07T06:06:46.354Z,41.45
2022-08-07T06:09:18.266Z,42.69
2022-08-07T06:11:49.920Z,41.65
2022-08-07T06:14:28.980Z,42.77
2022-08-07T06:17:07.099Z,42.87
2022-08-07T06:19:51.819Z,42.55
2022-08-07T06:22:40.114Z,43.82
2022-08-07T06:25:23.551Z,44.79
2022-08-07T06:28:10.775Z,44.42
2022-08-07T06:31:17.837Z,45.09
2022-08-07T06:33:54.836Z,44.94
2022-08-07T06:36:35.027Z,42.89
2022-08-07T06:40:17.715Z,43.58
2022-08-07T06:42:42.392Z,43.23
2022-08-07T06:45:35.773Z,43.04
2022-08-07T06:48:11.408Z,42.75
2022-08-07T06:50:47.710Z,43.50
2022-08-07T06:55:29.105Z,44.63
2022-08-07T06:56:16.779Z,44.74
2022-08-07T07:00:13.977Z,44.71
2022-08-07T07:01:50.978Z,43.40
2022-08-07T07:04:28.071Z,42.90
2022-08-07T07:07:19.036Z,43.73
2022-08-07T07:09:50.969Z,41.09
2022-08-07T07:12:48.716Z,39.37
2022-08-07T07:15:37.666Z,37.39
2022-08-07T07:18:46.972Z,39.39
2022-08-07T07:21:40.305Z,37.63
2022-08-07T07:24:17.332Z,37.54
2022-08-07T07:26:51.803Z,35.73
2022-08-07T07:29:40.634Z,36.36
2022-08-07T07:32:16.938Z,36.29
2022-08-07T07:34:54.646Z,35.74
2022-08-07T07:37:52.640Z,35.73
2022-08-07T07:40:26.052Z,36.96
2022-08-07T07:42:58.586Z,37.05
2022-08-07T07:46:49.875Z,35.94
2022-08-07T07:48:35.769Z,36.13
2022-08-07T07:51:08.645Z,36.22
2022-08-07T07:53:51.731Z,36.91
2022-08-07T07:56:30.145Z,36.47
2022-08-07T07:59:06.072Z,36.57
2022-08-07T08:02:04.817Z,35.69
2022-08-07T08:04:34.056Z,37.55
2022-08-07T08:07:07.746Z,37.26
2022-08-07T08:09:52.407Z,36.78
2022-08-07T08:12:51.585Z,36.88
2022-08-07T08:15:17.351Z,36.54
2022-08-07T08:17:57.334Z,38.83
2022-08-07T08:20:32.220Z,40.83
2022-08-07T08:23:21.186Z,40.59
2022-08-07T08:26:20.482Z,38.58
2022-08-07T08:28:53.597Z,39.08
2022-08-07T08:31:58.998Z,39.48
2022-08-07T08:34:35.930Z,39.63
2022-08-07T08:37:09.703Z,39.91
2022-08-07T08:39:54.891Z,38.85
2022-08-07T08:42:51.667Z,39.12
2022-08-07T08:46:00.662Z,38.47
2022-08-07T08:49:05.776Z,36.36
2022-08-07T08:52:18.941Z,38.00
2022-08-07T08:55:53.926Z,38.87
2022-08-07T08:59:06.448Z,38.46
2022-08-07T09:02:14.413Z,37.16
2022-08-07T09:05:37.717Z,37.34
2022-08-07T09:08:55.462Z,36.66
2022-08-07T09:11:50.791Z,37.93
2022-08-07T09:14:58.772Z,35.84
2022-08-07T09:18:08.728Z,36.69
2022-08-07T09:21:13.780Z,40.15
2022-08-07T09:24:31.520Z,41.80
2022-08-07T09:27:59.870Z,42.00
2022-08-07T09:31:05.194Z,39.03
2022-08-07T09:34:53.983Z,39.48
2022-08-07T09:38:26.530Z,35.61
2022-08-07T09:41:58.319Z,34.54
2022-08-07T09:47:25.996Z,36.24
2022-08-07T09:48:29.726Z,35.86
2022-08-07T09:52:10.266Z,35.78
2022-08-07T09:55:28.711Z,37.74
2022-08-07T09:58:20.765Z,40.02
2022-08-07T10:01:51.692Z,40.55
2022-08-07T10:05:14.965Z,39.91
2022-08-07T10:08:51.475Z,41.33
2022-08-07T10:12:16.679Z,41.63
2022-08-07T10:15:44.891Z,41.11
2022-08-07T10:18:44.229Z,42.09
2022-08-07T10:22:14.004Z,39.32
2022-08-07T10:25:14.110Z,39.27
2022-08-07T10:28:14.931Z,41.53
2022-08-07T10:30:58.722Z,39.52
2022-08-07T10:34:06.462Z,41.11
2022-08-07T10:38:09.876Z,41.08
2022-08-07T10:41:51.971Z,39.83
2022-08-07T10:45:03.381Z,39.95
2022-08-07T10:48:20.006Z,36.89
2022-08-07T10:50:54.931Z,38.71
2022-08-07T10:54:00.135Z,40.66
2022-08-07T10:57:07.390Z,39.37
2022-08-07T11:00:39.281Z,37.79
2022-08-07T11:03:28.106Z,37.97
2022-08-07T11:06:50.585Z,37.11
2022-08-07T11:10:08.855Z,40.90
2022-08-07T11:13:02.277Z,43.35
2022-08-07T11:15:40.639Z,39.68
2022-08-07T11:19:13.189Z,38.66
2022-08-07T11:22:32.440Z,37.31
2022-08-07T11:26:22.177Z,38.06
2022-08-07T11:29:42.977Z,39.51
2022-08-07T11:32:25.787Z,41.44
2022-08-07T11:36:10.448Z,46.55
2022-08-07T11:38:50.416Z,44.93
2022-08-07T11:42:01.851Z,41.22
2022-08-07T11:44:52.720Z,39.33
2022-08-07T11:48:44.179Z,41.89
2022-08-07T11:51:46.688Z,40.52
2022-08-07T11:54:57.644Z,40.69
2022-08-07T11:58:14.521Z,39.77
2022-08-07T12:02:01.087Z,40.73
2022-08-07T12:05:49.094Z,41.38
2022-08-07T12:08:34.575Z,39.96
2022-08-07T12:11:32.218Z,42.75
2022-08-07T12:15:35.479Z,41.89
2022-08-07T12:18:29.726Z,38.97
2022-08-07T12:22:38.899Z,40.74
2022-08-07T12:26:23.318Z,43.05
2022-08-07T12:29:12.410Z,42.83
2022-08-07T12:32:57.732Z,40.95
2022-08-07T12:36:49.583Z,40.73
2022-08-07T12:40:50.875Z,41.29
2022-08-07T12:44:34.657Z,44.08
2022-08-07T12:47:30.437Z,42.92
2022-08-07T12:51:17.595Z,38.44
2022-08-07T12:55:05.520Z,36.98
2022-08-07T12:58:02.198Z,37.94
2022-08-07T13:01:45.345Z,40.85
2022-08-07T13:06:04.464Z,42.23
2022-08-07T13:08:51.770Z,39.90
2022-08-07T13:12:03.117Z,39.50
2022-08-07T13:15:44.764Z,37.58
2022-08-07T13:19:35.133Z,39.47
2022-08-07T13:24:01.244Z,37.97
2022-08-07T13:26:26.556Z,37.68
2022-08-07T13:29:25.905Z,37.47
2022-08-07T13:32:23.607Z,37.55
2022-08-07T13:35:21.460Z,37.14
2022-08-07T13:38:21.083Z,36.83
2022-08-07T13:41:11.205Z,36.01
2022-08-07T13:43:52.853Z,35.59
2022-08-07T13:46:49.070Z,35.52
2022-08-07T13:50:33.872Z,33.82
2022-08-07T13:52:30.649Z,33.45
2022-08-07T13:55:10.742Z,33.84
2022-08-07T13:57:59.114Z,34.71
2022-08-07T14:00:54.119Z,35.39
2022-08-07T14:04:05.494Z,34.28
2022-08-07T14:06:33.279Z,34.69
2022-08-07T14:09:17.133Z,34.65
2022-08-07T14:13:02.060Z,33.12
2022-08-07T14:15:43.638Z,33.60
2022-08-07T14:18:30.431Z,34.29
2022-08-07T14:22:02.317Z,34.34
2022-08-07T14:24:19.378Z,34.65
2022-08-07T14:28:09.552Z,34.26
2022-08-07T14:30:14.497Z,34.22
2022-08-07T14:33:17.486Z,33.16
2022-08-07T14:35:59.272Z,33.20
2022-08-07T14:38:36.857Z,32.99
2022-08-07T14:41:33.885Z,33.27
2022-08-07T14:45:46.302Z,32.85
2022-08-07T14:49:57.934Z,31.40
2022-08-07T14:53:07.939Z,32.38
2022-08-07T14:58:34.225Z,31.54
2022-08-07T15:02:32.145Z,31.68
2022-08-07T15:05:05.027Z,31.64
2022-08-07T15:09:57.659Z,33.03
2022-08-07T15:13:11.570Z,31.88
2022-08-07T15:15:52.692Z,31.79
2022-08-07T15:21:44.011Z,32.79
2022-08-07T15:28:56.729Z,31.97
2022-08-07T15:33:04.080Z,32.39
2022-08-07T15:37:03.786Z,32.11
2022-08-07T15:39:56.805Z,32.94
2022-08-07T15:43:55.804Z,32.40
2022-08-07T15:46:31.868Z,32.55
2022-08-07T15:52:08.565Z,31.48
2022-08-07T15:54:43.809Z,31.63
2022-08-07T15:57:47.528Z,31.12
2022-08-07T16:00:33.472Z,31.91
2022-08-07T16:03:46.114Z,31.83
2022-08-07T16:06:19.865Z,32.04
2022-08-07T16:08:53.788Z,31.55
2022-08-07T16:12:38.972Z,31.70
2022-08-07T16:15:57.294Z,32.50
2022-08-07T16:18:49.744Z,32.09
2022-08-07T16:22:04.956Z,31.86
2022-08-07T16:24:52.357Z,31.49
2022-08-07T16:29:18.729Z,31.78
2022-08-07T16:31:51.005Z,32.13
2022-08-07T16:34:48.114Z,32.08
2022-08-07T16:38:06.538Z,32.68
2022-08-07T16:41:23.291Z,32.71
2022-08-07T16:44:55.363Z,32.14
2022-08-07T16:47:56.672Z,31.50
2022-08-07T16:51:54.530Z,31.27
2022-08-07T16:54:55.000Z,32.21
2022-08-07T16:58:02.412Z,32.38
2022-08-07T17:00:44.938Z,32.18
2022-08-07T17:03:58.083Z,31.96
2022-08-07T17:07:51.483Z,31.59
2022-08-07T17:10:32.569Z,31.50
2022-08-07T17:13:20.288Z,31.87
2022-08-07T17:16:05.883Z,31.60
2022-08-07T17:18:46.032Z,32.19
2022-08-07T17:21:51.534Z,31.75
2022-08-07T17:25:13.331Z,31.77
2022-08-07T17:28:06.987Z,31.40
2022-08-07T17:31:16.311Z,31.14
2022-08-07T17:34:57.234Z,31.39
2022-08-07T17:38:06.643Z,31.08
2022-08-07T17:41:12.288Z,31.05
2022-08-07T17:44:45.565Z,31.42
2022-08-07T17:48:48.179Z,31.64
2022-08-07T17:51:59.947Z,31.87
2022-08-07T17:55:04.351Z,31.60
2022-08-07T17:58:05.106Z,31.49
2022-08-07T18:01:56.920Z,31.00
2022-08-07T18:06:01.574Z,30.59
2022-08-07T18:10:04.666Z,30.84
2022-08-07T18:13:48.839Z,30.85
2022-08-07T18:16:57.467Z,30.43
2022-08-07T18:21:02.300Z,30.33
2022-08-07T18:23:58.721Z,30.13
2022-08-07T18:26:56.800Z,30.15
2022-08-07T18:30:40.507Z,30.15
2022-08-07T18:34:40.761Z,29.91
2022-08-07T18:38:59.081Z,29.40
2022-08-07T18:41:45.924Z,29.08
2022-08-07T18:45:39.952Z,29.17
2022-08-07T18:50:05.485Z,28.96
2022-08-07T18:52:37.613Z,28.72
2022-08-07T18:55:43.284Z,28.78
2022-08-07T18:59:47.883Z,28.47
2022-08-07T19:02:55.997Z,28.45
2022-08-07T19:06:03.670Z,28.40
2022-08-07T19:09:09.535Z,28.30
2022-08-07T19:12:48.953Z,28.21
2022-08-07T19:16:05.503Z,28.01
2022-08-07T19:19:14.445Z,27.95
2022-08-07T19:22:05.219Z,27.90
2022-08-07T19:26:25.327Z,27.74
2022-08-07T19:30:54.655Z,27.54
2022-08-07T19:32:06.818Z,27.68
2022-08-07T19:35:50.756Z,27.53
2022-08-07T19:39:56.606Z,27.01
2022-08-07T19:43:48.980Z,26.95
2022-08-07T19:46:29.179Z,27.06
2022-08-07T19:49:19.355Z,26.79
2022-08-07T19:52:07.040Z,26.82
2022-08-07T19:54:56.362Z,26.67
2022-08-07T19:58:04.126Z,26.52
2022-08-07T20:01:57.188Z,26.36
2022-08-07T20:04:38.156Z,26.30
2022-08-07T20:08:24.607Z,26.23
2022-08-07T20:12:31.655Z,25.92
2022-08-07T20:16:22.435Z,25.85
2022-08-07T20:20:15.210Z,25.80
2022-08-07T20:22:47.053Z,25.61
2022-08-07T20:25:19.751Z,25.62
2022-08-07T20:27:57.856Z,25.58
2022-08-07T20:30:41.253Z,25.58
2022-08-07T20:33:36.416Z,25.67
2022-08-07T20:36:08.874Z,25.43
2022-08-07T20:38:59.439Z,25.45
2022-08-07T20:41:38.187Z,25.38
2022-08-07T20:44:12.866Z,25.33
2022-08-07T20:46:45.040Z,25.19
2022-08-07T20:49:59.424Z,25.30
2022-08-07T20:52:16.510Z,24.76
2022-08-07T20:54:53.718Z,24.64
2022-08-07T20:57:29.152Z,24.69
2022-08-07T21:00:09.432Z,24.41
2022-08-07T21:02:58.738Z,24.43
2022-08-07T21:05:51.501Z,24.42
2022-08-07T21:08:46.755Z,24.06
2022-08-07T21:11:40.281Z,23.83
2022-08-07T21:14:32.038Z,23.57
2022-08-07T21:18:04.071Z,23.70
2022-08-07T21:20:05.278Z,23.32
2022-08-07T21:22:51.340Z,23.30
2022-08-07T21:25:29.976Z,23.52
2022-08-07T21:28:48.388Z,23.40
2022-08-07T21:32:42.969Z,22.99
2022-08-07T21:34:48.589Z,22.65
2022-08-07T21:37:58.610Z,22.54
2022-08-07T21:40:41.937Z,22.46
2022-08-07T21:43:22.809Z,22.04
2022-08-07T21:46:47.558Z,22.60
2022-08-07T21:50:02.675Z,22.48
2022-08-07T21:53:12.945Z,21.93
2022-08-07T21:56:02.272Z,22.22
2022-08-07T22:00:04.461Z,22.33
2022-08-07T22:03:48.458Z,22.41
2022-08-07T22:06:33.864Z,22.45
2022-08-07T22:10:16.805Z,22.44
2022-08-07T22:13:02.675Z,22.09
2022-08-07T22:16:42.807Z,21.85
2022-08-07T22:20:28.495Z,21.99
2022-08-07T22:24:11.338Z,21.83
2022-08-07T22:28:07.832Z,21.65
2022-08-07T22:32:05.268Z,21.13
2022-08-07T22:35:48.849Z,21.40
2022-08-07T22:39:35.200Z,21.52
2022-08-07T22:43:34.181Z,21.50
2022-08-07T22:47:17.166Z,21.36
2022-08-07T22:51:00.206Z,20.87
2022-08-07T22:54:49.017Z,20.79
2022-08-07T22:58:10.391Z,20.72
2022-08-07T23:01:53.729Z,20.71
2022-08-07T23:06:09.688Z,21.11
2022-08-07T23:10:00.681Z,21.11
2022-08-07T23:12:47.903Z,20.72
2022-08-07T23:16:44.757Z,20.90
2022-08-07T23:20:52.310Z,21.08
2022-08-07T23:24:06.043Z,20.40
2022-08-07T23:28:20.268Z,20.19
2022-08-07T23:32:49.238Z,19.87
2022-08-07T23:35:37.246Z,20.16
2022-08-07T23:38:55.182Z,20.33
2022-08-07T23:42:38.047Z,20.32
2022-08-07T23:46:23.665Z,20.23
2022-08-07T23:50:06.647Z,20.18
2022-08-07T23:53:53.995Z,19.93
2022-08-07T23:56:38.839Z,19.86
